Time;durP1;ratioP1;P1;durP2;ratioP2;P2;SDS_P1;SDS_P2;PMS_P1;PMS_P2;Temp;Humidity;BMP_temperature;BMP_pressure;BME280_temperature;BME280_humidity;BME280_pressure;Samples;Min_cycle;Max_cycle;Signal;HPM_P1;HPM_P2
2022/06/30 00:00:29;;;;;;;2.55;2.35;;;;;;;19.98;100.00;99562.34;1732936;80;21085;-54
2022/06/30 00:02:55;;;;;;;2.83;2.60;;;;;;;19.95;100.00;99572.16;1731331;81;21037;-54
2022/06/30 00:05:22;;;;;;;3.92;2.33;;;;;;;19.94;100.00;99581.36;1727348;81;21225;-55
2022/06/30 00:07:49;;;;;;;2.35;2.25;;;;;;;19.94;100.00;99577.76;1727540;81;21492;-54
2022/06/30 00:10:16;;;;;;;8.38;3.27;;;;;;;19.94;100.00;99581.36;1728228;81;21038;-55
2022/06/30 00:12:43;;;;;;;6.60;2.65;;;;;;;19.93;100.00;99575.52;1728417;81;21029;-55
2022/06/30 00:15:10;;;;;;;3.12;2.37;;;;;;;19.93;100.00;99583.72;1724222;81;21080;-55
2022/06/30 00:17:37;;;;;;;2.92;2.50;;;;;;;19.92;100.00;99579.25;1726091;81;21567;-54
2022/06/30 00:20:05;;;;;;;3.60;2.37;;;;;;;19.92;100.00;99585.22;1727407;81;21028;-54
2022/06/30 00:22:31;;;;;;;2.22;2.12;;;;;;;19.93;100.00;99591.05;1730752;81;21597;-55
2022/06/30 00:24:58;;;;;;;3.55;3.20;;;;;;;19.94;100.00;99597.75;1728631;81;21184;-54
2022/06/30 00:27:24;;;;;;;2.75;1.87;;;;;;;19.95;100.00;99610.91;1726950;81;21129;-54
2022/06/30 00:29:51;;;;;;;3.75;3.30;;;;;;;19.90;100.00;99609.09;1730454;81;21136;-54
2022/06/30 00:32:17;;;;;;;6.42;4.28;;;;;;;19.89;100.00;99599.17;1723739;81;21520;-54
2022/06/30 00:34:44;;;;;;;4.65;3.40;;;;;;;19.87;100.00;99602.03;1731365;81;21433;-54
2022/06/30 00:37:10;;;;;;;6.10;3.08;;;;;;;19.86;100.00;99600.30;1728361;81;21069;-54
2022/06/30 00:39:37;;;;;;;3.83;3.45;;;;;;;19.85;100.00;99601.80;1732536;81;21466;-55
2022/06/30 00:42:06;;;;;;;4.00;3.70;;;;;;;19.85;100.00;99594.97;1731121;81;22646;-56
2022/06/30 00:44:33;;;;;;;4.37;3.72;;;;;;;19.83;100.00;99602.42;1690619;83;20966;-54
2022/06/30 00:47:00;;;;;;;4.78;4.00;;;;;;;19.83;100.00;99612.84;1681979;83;21014;-54
2022/06/30 00:49:27;;;;;;;5.78;5.28;;;;;;;19.85;100.00;99623.64;1670487;84;21500;-55
2022/06/30 00:51:53;;;;;;;5.12;4.55;;;;;;;19.84;100.00;99634.20;1664491;83;20954;-54
2022/06/30 00:54:19;;;;;;;5.22;4.70;;;;;;;19.83;100.00;99625.14;1693523;83;21209;-54
2022/06/30 00:56:46;;;;;;;4.03;3.72;;;;;;;19.83;100.00;99631.09;1683439;83;20966;-54
2022/06/30 00:59:14;;;;;;;3.80;3.60;;;;;;;19.83;100.00;99625.14;1695890;82;21056;-53
2022/06/30 01:01:42;;;;;;;5.97;4.05;;;;;;;19.82;100.00;99617.95;1692900;82;21528;-54
2022/06/30 01:04:09;;;;;;;5.55;3.17;;;;;;;19.84;100.00;99620.55;1676439;83;20968;-54
2022/06/30 01:06:35;;;;;;;5.22;4.45;;;;;;;19.84;100.00;99624.64;1675902;83;22155;-54
2022/06/30 01:09:02;;;;;;;3.80;3.15;;;;;;;19.84;100.00;99615.08;1700911;82;21052;-54
2022/06/30 01:14:15;;;;;;;6.30;2.37;;;;;;;19.84;100.00;99609.63;1703909;82;20995;-54
2022/06/30 01:16:41;;;;;;;3.17;2.98;;;;;;;19.82;100.00;99612.48;1679601;83;21033;-54
2022/06/30 01:19:08;;;;;;;3.58;2.65;;;;;;;19.82;100.00;99605.66;1684861;83;21544;-54
2022/06/30 01:21:35;;;;;;;5.65;3.55;;;;;;;19.82;100.00;99611.65;1739122;80;21033;-54
2022/06/30 01:24:01;;;;;;;7.03;3.85;;;;;;;19.82;100.00;99614.38;1737245;80;21370;-55
2022/06/30 01:26:28;;;;;;;3.98;3.40;;;;;;;19.81;100.00;99615.38;1741748;80;21050;-55
2022/06/30 01:28:56;;;;;;;4.55;3.25;;;;;;;19.79;100.00;99615.50;1735419;80;21422;-56
2022/06/30 01:31:23;;;;;;;4.50;4.10;;;;;;;19.77;100.00;99607.07;1741054;80;21199;-55
2022/06/30 01:33:50;;;;;;;4.35;3.72;;;;;;;19.74;100.00;99608.70;1735192;80;22203;-55
2022/06/30 01:36:17;;;;;;;3.87;3.67;;;;;;;19.69;100.00;99610.48;1745642;80;21070;-55
2022/06/30 01:38:44;;;;;;;3.52;3.22;;;;;;;19.68;100.00;99605.15;1743412;80;21404;-55
2022/06/30 01:41:10;;;;;;;3.55;3.08;;;;;;;19.68;100.00;99593.73;1737257;80;21421;-55
2022/06/30 01:43:38;;;;;;;3.02;2.83;;;;;;;19.70;100.00;99597.70;1737844;80;21760;-59
2022/06/30 01:46:04;;;;;;;4.28;3.55;;;;;;;19.71;100.00;99599.43;1736386;80;21065;-55
2022/06/30 01:48:31;;;;;;;10.05;3.00;;;;;;;19.73;100.00;99611.09;1738901;80;21116;-55
2022/06/30 01:50:57;;;;;;;3.75;3.55;;;;;;;19.76;100.00;99605.34;1735662;80;21548;-55
2022/06/30 01:53:23;;;;;;;6.28;4.40;;;;;;;19.75;100.00;99594.91;1736287;80;21062;-55
2022/06/30 01:55:50;;;;;;;4.28;3.98;;;;;;;19.76;100.00;99603.97;1736389;80;21136;-55
2022/06/30 01:58:16;;;;;;;5.00;4.55;;;;;;;19.76;100.00;99610.80;1741346;80;21499;-55
2022/06/30 02:00:43;;;;;;;6.12;3.58;;;;;;;19.78;100.00;99612.91;1740280;80;21549;-55
2022/06/30 02:03:09;;;;;;;4.85;4.47;;;;;;;19.80;100.00;99605.45;1735398;80;21057;-55
2022/06/30 02:05:36;;;;;;;5.78;5.20;;;;;;;19.81;100.00;99598.48;1734212;80;21140;-55
2022/06/30 02:08:04;;;;;;;5.25;4.85;;;;;;;19.84;100.00;99601.42;1733535;80;21136;-54
2022/06/30 02:10:30;;;;;;;7.37;5.67;;;;;;;19.85;100.00;99606.76;1735656;80;21053;-54
2022/06/30 02:15:33;;;;;;;8.65;8.13;;;;;;;19.88;100.00;99593.34;1781313;78;28071;-53
2022/06/30 02:18:05;;;;;;;10.30;9.13;;;;;;;19.85;100.00;99608.62;1738109;80;21100;-54
2022/06/30 02:20:31;;;;;;;8.08;7.45;;;;;;;19.84;100.00;99604.16;1755784;80;21965;-52
2022/06/30 02:23:00;;;;;;;9.40;8.70;;;;;;;19.82;100.00;99603.45;1745554;80;21009;-53
2022/06/30 02:25:29;;;;;;;9.03;8.23;;;;;;;19.81;100.00;99603.95;1748828;80;21013;-53
2022/06/30 02:27:56;;;;;;;8.15;7.55;;;;;;;19.81;100.00;99609.91;1739946;80;21054;-53
2022/06/30 02:30:22;;;;;;;8.43;7.70;;;;;;;19.78;100.00;99610.17;1755214;80;21489;-53
2022/06/30 02:32:49;;;;;;;9.53;8.70;;;;;;;19.77;100.00;99611.17;1746442;80;22672;-54
2022/06/30 02:35:16;;;;;;;8.50;7.83;;;;;;;19.76;100.00;99615.77;1745242;80;21092;-53
2022/06/30 02:37:42;;;;;;;11.60;10.45;;;;;;;19.78;100.00;99619.73;1714452;81;21510;-54
2022/06/30 02:40:09;;;;;;;11.10;10.30;;;;;;;19.79;100.00;99613.27;1708023;81;21072;-52
2022/06/30 02:42:37;;;;;;;15.40;13.90;;;;;;;19.79;100.00;99610.54;1696334;83;21058;-52
2022/06/30 02:45:05;;;;;;;13.98;12.98;;;;;;;19.80;100.00;99610.91;1698369;83;21217;-54
2022/06/30 02:47:33;;;;;;;15.03;13.55;;;;;;;19.81;100.00;99608.05;1700196;83;21016;-52
2022/06/30 02:50:03;;;;;;;16.12;14.80;;;;;;;19.83;100.00;99607.89;1695764;83;21092;-52
2022/06/30 02:52:31;;;;;;;16.97;15.38;;;;;;;19.84;100.00;99610.98;1697886;83;21129;-53
2022/06/30 02:54:58;;;;;;;16.07;14.68;;;;;;;19.83;100.00;99606.02;1711567;81;21420;-53
2022/06/30 02:57:25;;;;;;;17.82;15.88;;;;;;;19.85;100.00;99614.95;1686622;81;21156;-53
2022/06/30 02:59:51;;;;;;;16.80;15.40;;;;;;;19.85;100.00;99619.05;1683619;83;21178;-54
2022/06/30 03:02:18;;;;;;;16.62;15.15;;;;;;;19.87;100.00;99625.75;1687647;82;21632;-55
2022/06/30 03:04:44;;;;;;;17.07;15.48;;;;;;;19.87;100.00;99622.52;1690888;82;21125;-54
2022/06/30 03:07:11;;;;;;;18.65;16.90;;;;;;;19.90;100.00;99632.31;1690303;82;22385;-53
2022/06/30 03:09:37;;;;;;;17.52;16.00;;;;;;;19.91;100.00;99633.52;1690318;82;21287;-54
2022/06/30 03:12:06;;;;;;;16.85;15.32;;;;;;;19.94;100.00;99641.95;1692505;82;21041;-53
2022/06/30 03:14:32;;;;;;;16.87;15.48;;;;;;;19.93;100.00;99647.05;1684883;82;21070;-54
2022/06/30 03:16:59;;;;;;;14.58;13.25;;;;;;;19.92;100.00;99643.95;1661610;83;21512;-53
2022/06/30 03:19:26;;;;;;;13.30;12.37;;;;;;;19.93;100.00;99641.09;1689333;82;21641;-53
2022/06/30 03:21:55;;;;;;;14.28;13.28;;;;;;;19.94;100.00;99635.98;1695595;82;22086;-54
2022/06/30 03:24:21;;;;;;;13.45;12.28;;;;;;;19.95;100.00;99642.33;1678539;83;21148;-54
2022/06/30 03:26:49;;;;;;;12.90;11.78;;;;;;;19.97;100.00;99645.79;1695159;82;22202;-53
2022/06/30 03:29:15;;;;;;;12.80;11.80;;;;;;;19.98;100.00;99651.63;1672330;83;21116;-54
2022/06/30 03:31:42;;;;;;;12.55;11.35;;;;;;;19.98;100.00;99651.63;1677096;83;21119;-54
2022/06/30 03:34:09;;;;;;;11.95;10.75;;;;;;;19.98;100.00;99652.49;1670600;83;21670;-54
2022/06/30 03:36:35;;;;;;;11.78;10.68;;;;;;;20.00;100.00;99653.20;1681955;83;21250;-53
2022/06/30 03:39:01;;;;;;;9.48;8.88;;;;;;;20.02;100.00;99658.03;1692416;82;21069;-54
2022/06/30 03:41:28;;;;;;;9.75;9.03;;;;;;;20.06;100.00;99657.77;1684901;83;21458;-53
2022/06/30 03:43:54;;;;;;;10.25;9.53;;;;;;;20.03;100.00;99660.27;1677477;83;21524;-54
2022/06/30 03:46:21;;;;;;;11.55;10.45;;;;;;;20.00;100.00;99665.48;1676946;83;21080;-54
2022/06/30 03:48:48;;;;;;;8.78;8.25;;;;;;;20.02;100.00;99660.77;1679403;83;21042;-54
2022/06/30 03:51:14;;;;;;;7.40;6.97;;;;;;;20.07;100.00;99654.04;1676474;83;21641;-54
2022/06/30 03:53:40;;;;;;;7.45;6.90;;;;;;;20.11;100.00;99650.88;1678180;83;20978;-53
2022/06/30 03:56:07;;;;;;;6.55;6.15;;;;;;;20.16;100.00;99643.66;1676728;83;21126;-53
2022/06/30 03:58:34;;;;;;;7.67;7.15;;;;;;;20.20;100.00;99648.70;1675782;83;21942;-54
2022/06/30 04:01:00;;;;;;;6.67;6.37;;;;;;;20.26;100.00;99655.47;1678737;83;21445;-53
2022/06/30 04:03:28;;;;;;;6.15;5.80;;;;;;;20.24;100.00;99647.44;1674132;83;21046;-52
2022/06/30 04:05:54;;;;;;;4.72;4.53;;;;;;;20.22;100.00;99647.20;1680682;83;20972;-54
2022/06/30 04:08:21;;;;;;;4.90;4.70;;;;;;;20.23;100.00;99648.94;1679512;83;21003;-54
2022/06/30 04:10:47;;;;;;;3.77;3.42;;;;;;;20.27;100.00;99649.00;1680482;83;21134;-54
2022/06/30 04:13:15;;;;;;;4.33;4.12;;;;;;;20.32;100.00;99650.84;1688921;82;20996;-53
2022/06/30 04:15:42;;;;;;;4.45;4.15;;;;;;;20.37;100.00;99646.72;1681484;83;20954;-52
2022/06/30 04:18:08;;;;;;;4.75;3.60;;;;;;;20.43;100.00;99648.52;1677095;83;21477;-54
2022/06/30 04:20:34;;;;;;;4.15;3.95;;;;;;;20.47;100.00;99649.48;1678644;83;21133;-54
2022/06/30 04:23:01;;;;;;;6.97;3.95;;;;;;;20.52;100.00;99649.91;1677620;83;21074;-53
2022/06/30 04:25:28;;;;;;;5.20;4.80;;;;;;;20.57;100.00;99648.15;1678561;83;21119;-54
2022/06/30 04:27:57;;;;;;;5.17;4.08;;;;;;;20.58;100.00;99649.88;1682884;83;21383;-53
2022/06/30 04:33:08;;;;;;;3.60;3.25;;;;;;;20.59;100.00;99651.58;1681160;83;21475;-53
2022/06/30 04:35:35;;;;;;;2.45;2.25;;;;;;;20.61;100.00;99650.95;1680079;83;21136;-54
2022/06/30 04:38:03;;;;;;;2.70;2.22;;;;;;;20.65;100.00;99650.55;1672971;83;21117;-53
2022/06/30 04:43:16;;;;;;;2.30;2.20;;;;;;;20.78;100.00;99656.61;1691130;83;21714;-53
2022/06/30 04:45:42;;;;;;;3.52;2.10;;;;;;;20.86;100.00;99653.16;1680193;83;21444;-54
2022/06/30 04:48:08;;;;;;;3.50;1.65;;;;;;;20.93;100.00;99661.66;1674455;83;21146;-52
2022/06/30 04:50:35;;;;;;;1.98;1.87;;;;;;;20.99;100.00;99659.25;1670820;83;21108;-53
2022/06/30 04:53:02;;;;;;;1.90;1.80;;;;;;;21.08;100.00;99667.11;1688127;83;21058;-53
2022/06/30 04:55:28;;;;;;;2.10;1.98;;;;;;;21.18;100.00;99672.63;1678607;83;21238;-53
2022/06/30 04:57:54;;;;;;;1.95;1.85;;;;;;;21.28;100.00;99674.84;1680639;83;21051;-53
2022/06/30 05:00:21;;;;;;;1.40;1.30;;;;;;;21.36;100.00;99666.27;1676132;83;21259;-53
2022/06/30 05:02:48;;;;;;;1.67;1.57;;;;;;;21.43;100.00;99663.84;1624992;86;21034;-54
2022/06/30 05:05:15;;;;;;;1.37;1.27;;;;;;;21.52;100.00;99661.59;1638522;85;21057;-53
2022/06/30 05:07:41;;;;;;;1.22;1.12;;;;;;;21.60;100.00;99664.98;1634270;85;21054;-54
2022/06/30 05:10:09;;;;;;;1.27;1.17;;;;;;;21.66;100.00;99665.75;1647389;85;21061;-54
2022/06/30 05:12:36;;;;;;;1.47;1.15;;;;;;;21.71;100.00;99669.77;1641703;85;21547;-55
2022/06/30 05:15:04;;;;;;;2.47;1.20;;;;;;;21.75;100.00;99672.59;1666640;82;21078;-54
2022/06/30 05:17:34;;;;;;;2.62;1.52;;;;;;;21.78;100.00;99672.78;1694548;82;21049;-54
2022/06/30 05:20:00;;;;;;;1.87;1.20;;;;;;;21.84;100.00;99674.95;1692706;82;21141;-53
2022/06/30 05:22:27;;;;;;;1.77;1.30;;;;;;;21.93;100.00;99673.20;1689731;82;21133;-53
2022/06/30 05:27:39;;;;;;;1.40;1.10;;;;;;;22.10;100.00;99677.95;1692174;82;21062;-52
2022/06/30 05:30:08;;;;;;;2.75;1.30;;;;;;;22.19;100.00;99669.70;1701139;82;21098;-52
2022/06/30 05:32:34;;;;;;;1.55;1.30;;;;;;;22.28;100.00;99672.55;1696991;82;21057;-53
2022/06/30 05:35:01;;;;;;;4.75;1.40;;;;;;;22.36;100.00;99680.39;1699640;82;21459;-54
2022/06/30 05:37:27;;;;;;;2.00;1.00;;;;;;;22.45;100.00;99681.36;1697188;82;21131;-54
2022/06/30 05:39:54;;;;;;;2.25;1.10;;;;;;;22.51;100.00;99678.00;1690546;82;21073;-53
2022/06/30 05:42:20;;;;;;;3.58;0.90;;;;;;;22.58;100.00;99683.23;1692471;82;21444;-55
2022/06/30 05:44:48;;;;;;;1.10;1.00;;;;;;;22.62;100.00;99674.56;1701215;82;21520;-56
2022/06/30 05:47:14;;;;;;;1.20;1.10;;;;;;;22.68;100.00;99670.34;1688421;82;21077;-56
2022/06/30 05:49:41;;;;;;;1.95;1.15;;;;;;;22.73;100.00;99664.38;1697861;82;21127;-55
2022/06/30 05:52:08;;;;;;;2.10;1.82;;;;;;;22.74;100.00;99667.00;1689072;82;21635;-55
2022/06/30 05:54:35;;;;;;;2.60;1.10;;;;;;;22.75;100.00;99662.38;1692472;82;22504;-54
2022/06/30 05:57:03;;;;;;;1.50;1.40;;;;;;;22.76;100.00;99659.99;1701388;82;21033;-55
2022/06/30 05:59:32;;;;;;;1.37;1.20;;;;;;;22.81;100.00;99662.62;1680804;83;20965;-55
2022/06/30 06:01:59;;;;;;;3.75;1.40;;;;;;;22.89;100.00;99655.85;1676891;83;21847;-56
2022/06/30 06:04:26;;;;;;;2.60;1.70;;;;;;;22.97;100.00;99653.19;1684570;83;21188;-55
2022/06/30 06:06:53;;;;;;;0.88;0.88;;;;;;;23.03;100.00;99650.36;1677189;83;21084;-55
2022/06/30 06:09:19;;;;;;;1.20;1.10;;;;;;;23.08;100.00;99656.23;1691521;83;22123;-55
2022/06/30 06:11:46;;;;;;;0.85;0.85;;;;;;;23.14;100.00;99661.62;1699149;82;21124;-56
2022/06/30 06:14:13;;;;;;;2.15;1.10;;;;;;;23.20;100.00;99672.84;1682713;83;21302;-56
2022/06/30 06:16:39;;;;;;;1.20;1.10;;;;;;;23.27;100.00;99674.45;1657757;83;21085;-56
2022/06/30 06:19:06;;;;;;;1.42;1.32;;;;;;;23.33;100.00;99677.42;1714013;81;21030;-55
2022/06/30 06:21:36;;;;;;;1.40;1.30;;;;;;;23.40;100.00;99681.27;1710496;81;21840;-57
2022/06/30 06:24:03;;;;;;;1.40;1.30;;;;;;;23.45;100.00;99672.56;1709703;81;21053;-56
2022/06/30 06:26:29;;;;;;;1.20;1.10;;;;;;;23.51;100.00;99670.59;1714912;81;21231;-56
2022/06/30 06:29:14;;;;;;;1.72;1.30;;;;;;;23.55;100.00;99672.02;1717936;81;21062;-55
2022/06/30 06:31:39;;;;;;;2.40;1.10;;;;;;;23.58;100.00;99673.55;1721921;81;21050;-56
2022/06/30 06:34:05;;;;;;;2.37;1.10;;;;;;;23.61;100.00;99685.11;1717839;81;21500;-58
2022/06/30 06:36:32;;;;;;;1.42;1.20;;;;;;;23.62;100.00;99684.59;1721571;81;21125;-56
2022/06/30 06:38:59;;;;;;;1.82;1.27;;;;;;;23.56;100.00;99676.45;1713270;81;21306;-57
2022/06/30 06:41:26;;;;;;;1.77;1.10;;;;;;;23.52;100.00;99670.94;1714821;81;21066;-57
2022/06/30 06:43:52;;;;;;;3.85;1.07;;;;;;;23.56;100.00;99679.75;1715663;81;21513;-56
2022/06/30 06:46:21;;;;;;;1.50;0.80;;;;;;;23.60;100.00;99671.02;1716711;81;20999;-58
2022/06/30 06:48:47;;;;;;;1.92;1.00;;;;;;;23.66;100.00;99667.62;1715935;81;20959;-57
2022/06/30 06:51:13;;;;;;;1.27;0.93;;;;;;;23.71;100.00;99670.77;1720111;81;21867;-56
2022/06/30 06:53:40;;;;;;;1.00;1.00;;;;;;;23.71;100.00;99672.66;1718873;81;20967;-57
2022/06/30 06:56:06;;;;;;;0.80;0.80;;;;;;;23.68;100.00;99664.20;1724741;81;21477;-56
2022/06/30 06:58:33;;;;;;;1.65;0.98;;;;;;;23.70;100.00;99670.92;1719821;81;20880;-55
2022/06/30 07:01:00;;;;;;;1.42;1.00;;;;;;;23.73;100.00;99666.49;1717250;81;21582;-56
2022/06/30 07:03:26;;;;;;;1.10;1.00;;;;;;;23.76;100.00;99658.77;1720634;81;21096;-56
2022/06/30 07:05:53;;;;;;;1.45;0.80;;;;;;;23.78;100.00;99659.13;1723705;81;20892;-57
2022/06/30 07:08:20;;;;;;;0.80;0.80;;;;;;;23.78;100.00;99662.74;1715500;81;20908;-56
2022/06/30 07:10:46;;;;;;;0.80;0.80;;;;;;;23.84;100.00;99659.85;1719375;81;21398;-56
2022/06/30 07:13:13;;;;;;;1.60;0.88;;;;;;;23.93;100.00;99657.00;1721970;81;20911;-56
2022/06/30 07:15:39;;;;;;;1.02;0.90;;;;;;;24.02;100.00;99655.17;1715709;80;21505;-54
2022/06/30 07:18:05;;;;;;;2.15;0.90;;;;;;;24.08;100.00;99652.63;1723971;80;20943;-56
2022/06/30 07:20:32;;;;;;;1.92;0.80;;;;;;;24.19;100.00;99654.77;1726634;80;21030;-56
2022/06/30 07:22:58;;;;;;;0.72;0.70;;;;;;;24.28;100.00;99656.56;1719605;80;20904;-56
2022/06/30 07:25:24;;;;;;;0.80;0.70;;;;;;;24.39;100.00;99650.28;1729480;80;20888;-56
2022/06/30 07:27:52;;;;;;;0.60;0.60;;;;;;;24.48;100.00;99648.42;1723396;80;21169;-57
2022/06/30 07:30:18;;;;;;;1.45;0.70;;;;;;;24.56;100.00;99655.85;1729862;80;21542;-59
2022/06/30 07:32:45;;;;;;;0.70;0.60;;;;;;;24.63;100.00;99652.27;1727101;80;20950;-59
2022/06/30 07:35:11;;;;;;;0.70;0.68;;;;;;;24.64;100.00;99654.00;1721635;80;21035;-57
2022/06/30 07:37:41;;;;;;;2.65;0.70;;;;;;;24.66;100.00;99655.21;1722634;80;21087;-54
2022/06/30 07:40:09;;;;;;;1.07;0.50;;;;;;;24.71;100.00;99658.31;1722086;80;21221;-58
2022/06/30 07:42:35;;;;;;;1.50;0.60;;;;;;;24.77;100.00;99653.52;1721800;80;21069;-57
2022/06/30 07:45:05;;;;;;;0.98;0.70;;;;;;;24.85;100.00;99664.55;1719145;80;21070;-56
2022/06/30 07:47:31;;;;;;;1.20;0.60;;;;;;;24.89;100.00;99658.56;1725557;80;21583;-56
2022/06/30 07:49:58;;;;;;;2.35;0.75;;;;;;;24.97;100.00;99659.64;1728135;80;21026;-57
2022/06/30 07:52:24;;;;;;;0.75;0.72;;;;;;;25.03;100.00;99663.95;1721145;80;21127;-57
2022/06/30 07:54:51;;;;;;;0.80;0.70;;;;;;;25.11;100.00;99659.84;1723370;80;21030;-58
2022/06/30 07:57:21;;;;;;;3.90;0.70;;;;;;;25.21;100.00;99667.95;1720670;80;21678;-57
2022/06/30 07:59:47;;;;;;;0.80;0.62;;;;;;;25.28;100.00;99667.61;1722380;80;21089;-55
2022/06/30 08:02:14;;;;;;;0.70;0.70;;;;;;;25.34;100.00;99675.22;1717672;80;21548;-56
2022/06/30 08:04:40;;;;;;;0.72;0.72;;;;;;;25.39;100.00;99672.80;1720108;80;21050;-57
2022/06/30 08:07:07;;;;;;;3.05;0.80;;;;;;;25.43;100.00;99671.45;1723601;80;21125;-58
2022/06/30 08:09:34;;;;;;;1.25;0.72;;;;;;;25.48;100.00;99669.03;1724125;80;21084;-58
2022/06/30 08:12:01;;;;;;;0.90;0.70;;;;;;;25.54;100.00;99663.34;1724424;80;21087;-58
2022/06/30 08:14:28;;;;;;;0.70;0.70;;;;;;;25.58;100.00;99666.11;1728161;80;21034;-57
2022/06/30 08:16:55;;;;;;;0.60;0.60;;;;;;;25.63;100.00;99658.20;1731633;80;21292;-59
2022/06/30 08:19:21;;;;;;;1.25;0.70;;;;;;;25.69;100.00;99656.67;1720097;80;21493;-58
2022/06/30 08:21:47;;;;;;;1.30;0.80;;;;;;;25.77;100.00;99660.80;1722443;80;21453;-56
2022/06/30 08:24:14;;;;;;;1.32;0.82;;;;;;;25.81;100.00;99656.66;1722358;80;21417;-59
2022/06/30 08:26:41;;;;;;;1.22;0.70;;;;;;;25.83;100.00;99662.86;1730406;80;21070;-57
2022/06/30 08:29:11;;;;;;;1.10;0.50;;;;;;;25.85;100.00;99665.80;1729076;80;21067;-54
2022/06/30 08:31:38;;;;;;;0.53;0.53;;;;;;;25.86;100.00;99660.59;1718842;80;21026;-58
2022/06/30 08:34:04;;;;;;;0.60;0.55;;;;;;;25.92;100.00;99663.20;1722348;80;21630;-58
2022/06/30 08:36:32;;;;;;;0.60;0.60;;;;;;;25.97;100.00;99660.77;1718112;80;21078;-55
2022/06/30 08:38:58;;;;;;;0.60;0.60;;;;;;;26.06;100.00;99662.99;1719233;80;21116;-58
2022/06/30 08:46:39;;;;;;;0.50;0.50;;;;;;;26.32;100.00;99654.00;1864712;75;21877;-57
2022/06/30 08:49:06;;;;;;;0.62;0.53;;;;;;;26.35;100.00;99660.05;1846679;76;21178;-58
2022/06/30 08:51:35;;;;;;;0.50;0.50;;;;;;;26.42;100.00;99657.42;1842918;76;21428;-57
2022/06/30 08:54:02;;;;;;;0.50;0.50;;;;;;;26.46;100.00;99653.77;1842544;76;20933;-60
2022/06/30 08:56:31;;;;;;;0.70;0.70;;;;;;;26.52;100.00;99654.47;1842722;77;21087;-58
2022/06/30 08:58:58;;;;;;;0.70;0.70;;;;;;;26.58;100.00;99652.36;1810367;77;21419;-57
2022/06/30 09:01:28;;;;;;;0.70;0.70;;;;;;;26.63;100.00;99660.95;1810883;77;21028;-57
2022/06/30 09:03:55;;;;;;;0.60;0.60;;;;;;;26.57;100.00;99656.16;1805800;77;21440;-57
2022/06/30 09:06:22;;;;;;;0.50;0.50;;;;;;;26.55;100.00;99660.98;1813457;78;20980;-57
2022/06/30 09:08:49;;;;;;;0.72;0.68;;;;;;;26.57;100.00;99657.54;1811650;77;20906;-56
2022/06/30 09:11:16;;;;;;;0.72;0.50;;;;;;;26.61;100.00;99658.92;1809802;77;21081;-57
2022/06/30 09:13:46;;;;;;;0.70;0.50;;;;;;;26.65;100.00;99658.88;1813691;78;20997;-56
2022/06/30 09:16:12;;;;;;;0.55;0.55;;;;;;;26.71;100.00;99662.33;1813950;77;21630;-57
2022/06/30 09:18:39;;;;;;;1.40;0.80;;;;;;;26.75;100.00;99670.58;1805461;77;21017;-59
2022/06/30 09:21:18;;;;;;;0.55;0.50;;;;;;;26.75;100.00;99661.78;1774803;79;21089;-57
2022/06/30 09:23:46;;;;;;;0.60;0.60;;;;;;;26.77;100.00;99658.84;1744461;80;21111;-58
2022/06/30 09:26:22;;;;;;;0.98;0.60;;;;;;;26.81;100.00;99656.05;1742759;81;21080;-58
2022/06/30 09:31:12;;;;;;;1.72;0.70;;;;;;;26.93;100.00;99654.65;1861172;74;21970;-55
2022/06/30 09:33:40;;;;;;;0.93;0.93;;;;;;;26.95;100.00;99654.47;1828354;76;21053;-56
2022/06/30 09:36:25;;;;;;;1.75;0.75;;;;;;;27.02;100.00;99653.56;1828620;76;21294;-54
2022/06/30 09:39:06;;;;;;;0.75;0.75;;;;;;;27.10;100.00;99657.66;1826085;77;21332;-56
2022/06/30 09:41:41;;;;;;;0.80;0.75;;;;;;;27.20;100.00;99660.19;1827574;77;21449;-56
2022/06/30 09:44:18;;;;;;;0.72;0.72;;;;;;;27.28;100.00;99657.37;1826124;76;21421;-56
2022/06/30 09:47:03;;;;;;;1.10;0.80;;;;;;;27.34;100.00;99655.25;1825544;77;20969;-58
2022/06/30 09:49:42;;;;;;;0.85;0.80;;;;;;;27.36;100.00;99655.07;1724660;77;21478;-57
2022/06/30 09:52:24;;;;;;;1.40;0.90;;;;;;;27.29;100.00;99656.85;1832363;76;20918;-56
2022/06/30 09:55:02;;;;;;;1.75;0.90;;;;;;;27.24;100.00;99650.48;1832264;76;21007;-55
2022/06/30 09:57:34;;;;;;;1.05;1.00;;;;;;;27.21;100.00;99652.77;1821958;76;21435;-58
2022/06/30 10:00:13;;;;;;;1.07;0.98;;;;;;;27.16;100.00;99646.39;1802071;77;21087;-56
2022/06/30 10:02:47;;;;;;;1.10;1.02;;;;;;;27.12;100.00;99649.19;1814415;77;22280;-57
2022/06/30 10:05:15;;;;;;;;;;;;;;;27.07;100.00;99641.44;1803653;77;21305;-55
2022/06/30 10:07:41;;;;;;;1.25;1.10;;;;;;;27.09;100.00;99639.88;1802629;77;20134;-56
2022/06/30 10:10:12;;;;;;;1.10;1.00;;;;;;;27.13;100.00;99645.91;1805913;77;21468;-54
2022/06/30 10:12:40;;;;;;;1.07;1.00;;;;;;;27.16;100.00;99644.14;1808416;77;20910;-57
2022/06/30 10:15:08;;;;;;;1.20;0.90;;;;;;;27.16;100.00;99645.00;1804277;77;21175;-56
2022/06/30 10:17:38;;;;;;;1.12;0.80;;;;;;;27.14;100.00;99644.32;1813154;77;20907;-56
2022/06/30 10:20:06;;;;;;;0.80;0.80;;;;;;;27.16;100.00;99649.67;1807078;77;20995;-58
2022/06/30 10:22:33;;;;;;;0.75;0.75;;;;;;;27.19;100.00;99651.56;1802379;76;21466;-58
2022/06/30 10:24:59;;;;;;;0.80;0.80;;;;;;;27.26;100.00;99651.68;1805998;77;20902;-57
2022/06/30 10:27:26;;;;;;;1.92;0.90;;;;;;;27.29;100.00;99647.18;1813420;77;21075;-58
2022/06/30 10:29:57;;;;;;;1.00;0.90;;;;;;;27.31;100.00;99645.07;1799406;77;20879;-57
2022/06/30 10:32:45;;;;;;;2.80;0.90;;;;;;;27.29;100.00;99649.42;1802882;76;21411;-56
2022/06/30 10:35:17;;;;;;;0.82;0.80;;;;;;;27.30;100.00;99654.43;1810061;76;21458;-59
2022/06/30 10:38:13;;;;;;;0.80;0.80;;;;;;;27.34;100.00;99646.09;1799598;77;21558;-56
2022/06/30 10:41:07;;;;;;;3.70;0.80;;;;;;;27.36;100.00;99642.11;1812428;77;21142;-58
2022/06/30 10:43:34;;;;;;;1.17;0.90;;;;;;;27.36;100.00;99647.64;1803803;77;21378;-57
2022/06/30 10:46:02;;;;;;;1.12;0.90;;;;;;;27.39;100.00;99646.42;1797427;77;21693;-57
2022/06/30 10:48:50;;;;;;;1.15;0.90;;;;;;;27.37;100.00;99646.60;1804411;77;21002;-56
2022/06/30 10:51:16;;;;;;;2.08;0.90;;;;;;;27.40;100.00;99639.82;1798256;77;21013;-58
2022/06/30 10:53:48;;;;;;;1.32;0.80;;;;;;;27.48;100.00;99638.38;1795450;77;21144;-59
2022/06/30 10:56:14;;;;;;;1.62;0.80;;;;;;;27.53;100.00;99638.70;1799560;77;21068;-58
2022/06/30 10:59:04;;;;;;;0.80;0.80;;;;;;;27.60;100.00;99635.55;1804561;77;21453;-59
2022/06/30 11:01:30;;;;;;;0.90;0.90;;;;;;;27.67;100.00;99636.53;1810384;77;20994;-60
2022/06/30 11:03:57;;;;;;;2.55;0.90;;;;;;;27.71;100.00;99632.36;1761886;79;21087;-57
2022/06/30 11:06:28;;;;;;;3.62;0.85;;;;;;;27.69;100.00;99630.81;1761062;79;21097;-57
2022/06/30 11:09:00;;;;;;;2.15;0.90;;;;;;;27.72;100.00;99633.22;1717892;80;21660;-56
2022/06/30 11:11:34;;;;;;;0.75;0.75;;;;;;;27.66;100.00;99638.95;1797172;76;21499;-56
2022/06/30 11:14:10;;;;;;;0.90;0.90;;;;;;;27.65;100.00;99634.46;1800002;76;21024;-57
2022/06/30 11:16:38;;;;;;;1.98;0.80;;;;;;;27.65;100.00;99631.70;1804031;76;21670;-56
2022/06/30 11:19:14;;;;;;;3.55;1.50;;;;;;;27.68;100.00;99635.48;1805688;76;21396;-56
2022/06/30 11:21:44;;;;;;;1.35;0.90;;;;;;;27.68;100.00;99629.95;1803754;76;21143;-56
2022/06/30 11:24:12;;;;;;;0.93;0.88;;;;;;;27.68;100.00;99629.09;1798133;76;22136;-56
2022/06/30 11:29:26;;;;;;;1.20;1.10;;;;;;;27.76;100.00;99631.27;1763170;79;21053;-59
2022/06/30 11:31:59;;;;;;;0.80;0.80;;;;;;;27.82;100.00;99615.81;1735296;80;21208;-58
2022/06/30 11:34:26;;;;;;;1.07;0.82;;;;;;;27.83;100.00;99619.78;1737555;80;21065;-57
2022/06/30 11:36:53;;;;;;;0.88;0.88;;;;;;;27.88;100.00;99622.52;1735111;80;21627;-58
2022/06/30 11:39:20;;;;;;;1.98;0.88;;;;;;;27.95;100.00;99624.87;1737357;80;21145;-59
2022/06/30 11:41:54;;;;;;;0.90;0.90;;;;;;;28.01;100.00;99624.10;1739188;80;20974;-58
2022/06/30 11:44:33;;;;;;;1.35;0.80;;;;;;;28.03;100.00;99622.88;1739092;80;21125;-55
2022/06/30 11:47:05;;;;;;;0.90;0.90;;;;;;;28.06;100.00;99617.50;1742459;80;20855;-57
2022/06/30 11:49:48;;;;;;;1.40;0.90;;;;;;;28.08;100.00;99619.52;1742722;80;21361;-57
2022/06/30 11:52:24;;;;;;;0.80;0.80;;;;;;;28.06;100.00;99618.88;1741049;80;21012;-56